createdAt,value
2022-12-29T00:02:25.629Z,100066.69
2022-12-29T00:04:52.875Z,100063.09
2022-12-29T00:07:20.161Z,100062.19
2022-12-29T00:09:47.367Z,100060.25
2022-12-29T00:12:14.609Z,100055.94
2022-12-29T00:15:00.256Z,100062.94
2022-12-29T00:17:27.441Z,100054.84
2022-12-29T00:20:13.137Z,100049.69
2022-12-29T00:22:59.481Z,100045.22
2022-12-29T00:25:45.064Z,100038.16
2022-12-29T00:28:30.971Z,100045.88
2022-12-29T00:31:20.191Z,100043.19
2022-12-29T00:34:05.927Z,100033.63
2022-12-29T00:36:38.300Z,100021.47
2022-12-29T00:39:28.689Z,100031.88
2022-12-29T00:42:14.636Z,100042.97
2022-12-29T00:44:41.831Z,100035.94
2022-12-29T00:47:09.088Z,100016.16
2022-12-29T00:49:36.268Z,100027.69
2022-12-29T00:52:09.378Z,100035.44
2022-12-29T00:54:38.627Z,100041.59
2022-12-29T00:57:06.534Z,100023.41
2022-12-29T00:59:36.499Z,100032.00
2022-12-29T01:02:04.113Z,100026.81
2022-12-29T01:04:31.448Z,100026.75
2022-12-29T01:06:58.609Z,100020.63
2022-12-29T01:09:44.270Z,100015.31
2022-12-29T01:12:11.785Z,100021.25
2022-12-29T01:14:39.433Z,100013.38
2022-12-29T01:17:06.930Z,100025.66
2022-12-29T01:19:34.609Z,100022.81
2022-12-29T01:22:01.927Z,100028.78
2022-12-29T01:24:29.213Z,100018.34
2022-12-29T01:26:56.454Z,100025.16
2022-12-29T01:29:24.132Z,100020.91
2022-12-29T01:31:51.399Z,100026.19
2022-12-29T01:34:18.954Z,100021.13
2022-12-29T01:36:46.190Z,100013.31
2022-12-29T01:39:13.352Z,100024.75
2022-12-29T01:41:42.121Z,100023.91
2022-12-29T01:44:48.375Z,100013.50
2022-12-29T01:47:27.417Z,100019.47
2022-12-29T01:49:56.994Z,100008.38
2022-12-29T01:52:25.372Z,100005.00
2022-12-29T01:54:54.541Z,99998.81
2022-12-29T01:57:27.211Z,99992.75
2022-12-29T02:00:10.356Z,99991.94
2022-12-29T02:02:37.717Z,100004.91
2022-12-29T02:05:12.906Z,99989.84
2022-12-29T02:07:41.369Z,99986.25
2022-12-29T02:10:08.771Z,99989.56
2022-12-29T02:12:35.948Z,99985.28
2022-12-29T02:15:03.708Z,99986.88
2022-12-29T02:17:50.335Z,99974.56
2022-12-29T02:20:39.198Z,99977.81
2022-12-29T02:23:45.378Z,99974.16
2022-12-29T02:26:24.427Z,99972.34
2022-12-29T02:29:17.890Z,99972.88
2022-12-29T02:32:07.534Z,99971.91
2022-12-29T02:34:42.881Z,99962.47
2022-12-29T02:37:45.415Z,99963.19
2022-12-29T02:40:31.039Z,99964.72
2022-12-29T02:43:35.501Z,99962.53
2022-12-29T02:46:19.618Z,99956.50
2022-12-29T02:48:57.857Z,99959.75
2022-12-29T02:51:46.630Z,99957.13
2022-12-29T02:54:32.314Z,99950.09
2022-12-29T02:56:59.477Z,99950.09
2022-12-29T02:59:26.679Z,99950.69
2022-12-29T03:02:21.508Z,99942.69
2022-12-29T03:05:09.313Z,99940.06
2022-12-29T03:07:57.326Z,99931.53
2022-12-29T03:11:01.373Z,99926.84
2022-12-29T03:13:55.890Z,99926.72
2022-12-29T03:16:43.887Z,99932.72
2022-12-29T03:19:20.489Z,99930.66
2022-12-29T03:22:09.860Z,99923.59
2022-12-29T03:24:41.888Z,99915.84
2022-12-29T03:27:12.137Z,99927.06
2022-12-29T03:29:43.965Z,99921.00
2022-12-29T03:32:13.931Z,99917.41
2022-12-29T03:34:41.650Z,99922.47
2022-12-29T03:37:13.931Z,99906.91
2022-12-29T03:39:41.538Z,99917.31
2022-12-29T03:42:14.250Z,99929.59
2022-12-29T03:44:44.183Z,99928.84
2022-12-29T03:47:12.812Z,99930.44
2022-12-29T03:49:39.999Z,99932.00
2022-12-29T03:52:07.469Z,99938.31
2022-12-29T03:54:34.732Z,99938.09
2022-12-29T03:57:01.960Z,99922.94
2022-12-29T03:59:29.113Z,99928.19
2022-12-29T04:01:56.350Z,99927.47
2022-12-29T04:04:23.819Z,99920.31
2022-12-29T04:06:50.969Z,99916.06
2022-12-29T04:09:18.141Z,99910.88
2022-12-29T04:11:45.375Z,99911.59
2022-12-29T04:14:12.575Z,99924.81
2022-12-29T04:16:39.967Z,99926.38
2022-12-29T04:19:08.425Z,99937.69
2022-12-29T04:21:35.713Z,99922.06
2022-12-29T04:24:02.987Z,99921.13
2022-12-29T04:26:30.221Z,99918.41
2022-12-29T04:28:57.380Z,99893.94
2022-12-29T04:31:24.648Z,99903.47
2022-12-29T04:33:51.870Z,99899.97
2022-12-29T04:36:19.018Z,99900.97
2022-12-29T04:38:46.242Z,99909.78
2022-12-29T04:41:13.454Z,99901.56
2022-12-29T04:43:40.619Z,99897.94
2022-12-29T04:46:07.839Z,99897.00
2022-12-29T04:48:35.071Z,99898.47
2022-12-29T04:51:02.258Z,99895.78
2022-12-29T04:53:29.449Z,99898.34
2022-12-29T04:55:56.677Z,99905.22
2022-12-29T04:58:23.917Z,99899.19
2022-12-29T05:00:52.556Z,99908.50
2022-12-29T05:03:19.916Z,99899.78
2022-12-29T05:05:47.166Z,99900.81
2022-12-29T05:08:14.334Z,99878.81
2022-12-29T05:10:41.827Z,99879.75
2022-12-29T05:13:09.038Z,99887.34
2022-12-29T05:15:36.266Z,99885.22
2022-12-29T05:18:03.513Z,99879.91
2022-12-29T05:20:30.658Z,99866.56
2022-12-29T05:22:57.861Z,99863.94
2022-12-29T05:25:25.050Z,99855.34
2022-12-29T05:27:52.219Z,99856.91
2022-12-29T05:30:19.378Z,99863.66
2022-12-29T05:32:46.563Z,99855.78
2022-12-29T05:35:13.855Z,99851.31
2022-12-29T05:37:41.778Z,99859.81
2022-12-29T05:40:09.516Z,99861.47
2022-12-29T05:42:36.686Z,99859.69
2022-12-29T05:45:04.192Z,99855.22
2022-12-29T05:47:31.364Z,99839.06
2022-12-29T05:49:58.519Z,99854.94
2022-12-29T05:52:25.666Z,99848.97
2022-12-29T05:54:52.955Z,99845.28
2022-12-29T05:57:20.154Z,99845.97
2022-12-29T05:59:47.346Z,99845.22
2022-12-29T06:02:14.743Z,99851.31
2022-12-29T06:04:42.033Z,99838.19
2022-12-29T06:07:09.178Z,99845.84
2022-12-29T06:09:36.347Z,99837.94
2022-12-29T06:12:03.506Z,99848.31
2022-12-29T06:14:30.701Z,99836.31
2022-12-29T06:16:57.900Z,99842.44
2022-12-29T06:19:25.074Z,99839.81
2022-12-29T06:21:53.540Z,99841.50
2022-12-29T06:24:20.761Z,99835.19
2022-12-29T06:26:47.931Z,99849.13
2022-12-29T06:29:18.041Z,99839.34
2022-12-29T06:31:49.706Z,99854.22
2022-12-29T06:34:17.162Z,99847.56
2022-12-29T06:36:44.511Z,99835.88
2022-12-29T06:39:12.239Z,99851.03
2022-12-29T06:41:39.415Z,99848.59
2022-12-29T06:44:06.616Z,99851.38
2022-12-29T06:46:33.930Z,99849.81
2022-12-29T06:49:01.191Z,99862.03
2022-12-29T06:51:28.345Z,99867.84
2022-12-29T06:53:55.598Z,99873.34
2022-12-29T06:56:22.840Z,99869.91
2022-12-29T06:58:50.113Z,99873.34
2022-12-29T07:01:17.416Z,99866.72
2022-12-29T07:03:44.705Z,99876.81
2022-12-29T07:06:12.136Z,99876.09
2022-12-29T07:08:39.550Z,99888.28
2022-12-29T07:11:07.219Z,99883.03
2022-12-29T07:13:34.416Z,99884.75
2022-12-29T07:16:05.725Z,99881.63
2022-12-29T07:18:32.902Z,99886.03
2022-12-29T07:21:00.106Z,99885.97
2022-12-29T07:23:27.376Z,99894.03
2022-12-29T07:26:05.515Z,99886.28
2022-12-29T07:28:33.236Z,99888.16
2022-12-29T07:31:00.980Z,99880.09
2022-12-29T07:33:30.513Z,99885.09
2022-12-29T07:35:58.162Z,99882.28
2022-12-29T07:38:25.405Z,99886.09
2022-12-29T07:40:52.808Z,99878.22
2022-12-29T07:43:19.977Z,99881.56
2022-12-29T07:45:47.220Z,99875.09
2022-12-29T07:48:14.403Z,99871.22
2022-12-29T07:50:41.607Z,99874.75
2022-12-29T07:53:09.173Z,99879.09
2022-12-29T07:55:36.522Z,99871.84
2022-12-29T07:58:03.742Z,99867.44
2022-12-29T08:00:31.077Z,99869.00
2022-12-29T08:02:58.262Z,99861.75
2022-12-29T08:05:25.444Z,99859.91
2022-12-29T08:07:52.870Z,99850.09
2022-12-29T08:10:20.103Z,99850.94
2022-12-29T08:12:47.268Z,99865.50
2022-12-29T08:15:14.456Z,99867.94
2022-12-29T08:17:41.701Z,99870.00
2022-12-29T08:20:09.479Z,99870.47
2022-12-29T08:22:36.784Z,99866.53
2022-12-29T08:25:04.587Z,99861.03
2022-12-29T08:27:31.758Z,99851.47
2022-12-29T08:30:00.937Z,99850.38
2022-12-29T08:32:29.344Z,99857.44
2022-12-29T08:34:56.617Z,99857.66
2022-12-29T08:37:29.050Z,99870.06
2022-12-29T08:39:59.640Z,99873.47
2022-12-29T08:42:31.790Z,99874.19
2022-12-29T08:44:59.821Z,99865.09
2022-12-29T08:47:27.197Z,99867.53
2022-12-29T08:49:54.568Z,99864.59
2022-12-29T08:52:21.866Z,99860.63
2022-12-29T08:54:49.046Z,99854.22
2022-12-29T08:57:16.222Z,99847.50
2022-12-29T08:59:43.592Z,99856.88
2022-12-29T09:02:17.504Z,99856.72
2022-12-29T09:04:47.673Z,99853.09
2022-12-29T09:07:14.921Z,99846.66
2022-12-29T09:09:42.121Z,99856.31
2022-12-29T09:12:09.549Z,99848.56
2022-12-29T09:14:36.747Z,99853.84
2022-12-29T09:17:22.448Z,99840.38
2022-12-29T09:19:49.621Z,99849.69
2022-12-29T09:22:16.798Z,99854.34
2022-12-29T09:24:44.019Z,99847.09
2022-12-29T09:27:11.180Z,99848.34
2022-12-29T09:29:38.371Z,99836.56
2022-12-29T09:32:07.771Z,99838.88
2022-12-29T09:34:35.400Z,99848.94
2022-12-29T09:37:02.575Z,99837.94
2022-12-29T09:39:29.760Z,99839.75
2022-12-29T09:42:21.029Z,99829.72
2022-12-29T09:45:09.845Z,99832.63
2022-12-29T09:47:37.196Z,99831.56
2022-12-29T09:50:25.935Z,99840.69
2022-12-29T09:53:09.220Z,99833.38
2022-12-29T09:55:37.613Z,99841.31
2022-12-29T09:58:31.095Z,99840.41
2022-12-29T10:01:06.129Z,99848.31
2022-12-29T10:03:49.846Z,99846.44
2022-12-29T10:06:27.964Z,99832.25
2022-12-29T10:08:59.592Z,99819.53
2022-12-29T10:11:50.490Z,99840.19
2022-12-29T10:14:33.834Z,99848.88
2022-12-29T10:17:26.448Z,99846.06
2022-12-29T10:20:15.833Z,99821.81
2022-12-29T10:23:09.278Z,99832.06
2022-12-29T10:25:39.835Z,99833.91
2022-12-29T10:28:18.797Z,99822.66
2022-12-29T10:30:48.483Z,99823.69
2022-12-29T10:33:20.304Z,99834.13
2022-12-29T10:35:49.324Z,99831.34
2022-12-29T10:38:43.510Z,99825.72
2022-12-29T10:41:18.192Z,99827.31
2022-12-29T10:43:54.175Z,99824.41
2022-12-29T10:46:30.402Z,99834.84
2022-12-29T10:48:57.655Z,99830.50
2022-12-29T10:51:34.923Z,99837.84
2022-12-29T10:54:17.634Z,99832.63
2022-12-29T10:56:53.115Z,99832.09
2022-12-29T10:59:25.672Z,99830.34
2022-12-29T11:02:05.895Z,99851.53
2022-12-29T11:04:50.155Z,99830.41
2022-12-29T11:07:25.090Z,99833.38
2022-12-29T11:09:54.551Z,99844.41
2022-12-29T11:12:29.829Z,99834.53
2022-12-29T11:15:08.804Z,99838.28
2022-12-29T11:17:53.211Z,99845.59
2022-12-29T11:20:31.043Z,99843.38
2022-12-29T11:22:58.787Z,99848.31
2022-12-29T11:25:26.057Z,99845.41
2022-12-29T11:28:03.297Z,99852.00
2022-12-29T11:30:32.527Z,99846.31
2022-12-29T11:32:59.682Z,99838.22
2022-12-29T11:35:42.316Z,99833.94
2022-12-29T11:38:24.859Z,99847.06
2022-12-29T11:40:52.282Z,99857.44
2022-12-29T11:43:34.399Z,99857.91
2022-12-29T11:46:04.536Z,99866.38
2022-12-29T11:48:41.413Z,99859.13
2022-12-29T11:51:09.126Z,99877.50
2022-12-29T11:53:48.619Z,99869.38
2022-12-29T11:56:17.888Z,99863.53
2022-12-29T11:58:45.026Z,99872.78
2022-12-29T12:01:18.239Z,99867.44
2022-12-29T12:04:02.591Z,99868.44
2022-12-29T12:06:32.100Z,99878.34
2022-12-29T12:09:09.474Z,99873.16
2022-12-29T12:11:39.032Z,99865.66
2022-12-29T12:14:27.837Z,99876.34
2022-12-29T12:16:58.261Z,99868.34
2022-12-29T12:19:48.412Z,99862.16
2022-12-29T12:22:32.381Z,99860.69
2022-12-29T12:25:30.604Z,99861.75
2022-12-29T12:28:01.907Z,99863.69
2022-12-29T12:30:31.615Z,99858.66
2022-12-29T12:33:19.332Z,99865.00
2022-12-29T12:36:07.594Z,99847.50
2022-12-29T12:39:03.799Z,99846.09
2022-12-29T12:41:46.107Z,99849.50
2022-12-29T12:44:27.567Z,99852.75
2022-12-29T12:46:54.879Z,99849.50
2022-12-29T12:49:51.148Z,99842.66
2022-12-29T12:52:44.526Z,99861.22
2022-12-29T12:55:36.622Z,99859.03
2022-12-29T12:58:11.840Z,99865.00
2022-12-29T13:00:53.323Z,99859.88
2022-12-29T13:03:36.917Z,99865.44
2022-12-29T13:06:38.493Z,99866.44
2022-12-29T13:09:27.713Z,99870.28
2022-12-29T13:12:09.823Z,99864.38
2022-12-29T13:14:57.018Z,99865.03
2022-12-29T13:17:53.486Z,99876.25
2022-12-29T13:20:32.132Z,99871.97
2022-12-29T13:23:32.364Z,99870.28
2022-12-29T13:26:16.029Z,99879.03
2022-12-29T13:29:19.712Z,99880.81
2022-12-29T13:31:57.417Z,99877.31
2022-12-29T13:34:56.163Z,99873.75
2022-12-29T13:37:27.327Z,99870.97
2022-12-29T13:40:01.678Z,99883.28
2022-12-29T13:42:29.678Z,99876.38
2022-12-29T13:45:02.034Z,99877.38
2022-12-29T13:47:40.435Z,99880.72
2022-12-29T13:50:16.974Z,99879.97
2022-12-29T13:52:50.668Z,99876.25
2022-12-29T13:55:37.506Z,99877.25
2022-12-29T13:58:19.593Z,99879.06
2022-12-29T14:00:58.613Z,99883.50
2022-12-29T14:03:45.798Z,99881.78
2022-12-29T14:06:18.597Z,99881.78
2022-12-29T14:08:46.297Z,99881.94
2022-12-29T14:11:16.209Z,99884.56
2022-12-29T14:13:45.927Z,99891.59
2022-12-29T14:16:33.933Z,99896.88
2022-12-29T14:19:19.066Z,99892.69
2022-12-29T14:22:12.850Z,99894.44
2022-12-29T14:24:42.856Z,99898.09
2022-12-29T14:27:15.680Z,99899.78
2022-12-29T14:29:42.755Z,99899.78
2022-12-29T14:32:27.904Z,99899.69
2022-12-29T14:34:56.373Z,99918.03
2022-12-29T14:37:34.397Z,99909.06
2022-12-29T14:40:07.791Z,99916.22
2022-12-29T14:42:35.605Z,99920.59
2022-12-29T14:45:14.839Z,99924.00
2022-12-29T14:47:45.737Z,99928.47
2022-12-29T14:50:17.313Z,99931.91
2022-12-29T14:53:00.038Z,99935.47
2022-12-29T14:55:44.294Z,99927.44
2022-12-29T14:58:17.665Z,99935.94
2022-12-29T15:00:46.324Z,99947.75
2022-12-29T15:03:23.980Z,99953.66
2022-12-29T15:06:12.094Z,99949.81
2022-12-29T15:08:53.319Z,99960.13
2022-12-29T15:11:26.004Z,99973.56
2022-12-29T15:13:53.809Z,99972.91
2022-12-29T15:16:30.529Z,99971.34
2022-12-29T15:18:58.099Z,99965.41
2022-12-29T15:21:33.204Z,99968.63
2022-12-29T15:24:00.632Z,99975.19
2022-12-29T15:26:39.390Z,99971.03
2022-12-29T15:29:06.582Z,99964.41
2022-12-29T15:31:33.776Z,99975.16
2022-12-29T15:34:12.007Z,99980.44
2022-12-29T15:36:41.054Z,99977.78
2022-12-29T15:39:21.935Z,99980.22
2022-12-29T15:42:00.567Z,99984.75
2022-12-29T15:44:46.009Z,99987.91
2022-12-29T15:47:19.491Z,99986.78
2022-12-29T15:49:50.441Z,99991.19
2022-12-29T15:52:20.464Z,100002.81
2022-12-29T15:54:52.837Z,100002.03
2022-12-29T15:57:25.807Z,100000.25
2022-12-29T15:59:54.769Z,100004.66
2022-12-29T16:02:24.072Z,100012.81
2022-12-29T16:07:41.947Z,100020.75
2022-12-29T16:10:31.320Z,100021.56
2022-12-29T16:13:11.554Z,100025.97
2022-12-29T16:15:38.756Z,100025.38
2022-12-29T16:18:06.341Z,100028.72
2022-12-29T16:20:41.293Z,100035.78
2022-12-29T16:23:19.200Z,100026.69
2022-12-29T16:25:46.722Z,100025.03
2022-12-29T16:28:36.302Z,100024.31
2022-12-29T16:31:08.033Z,100027.91
2022-12-29T16:33:44.270Z,100034.03
2022-12-29T16:36:31.369Z,100027.13
2022-12-29T16:39:23.025Z,100035.75
2022-12-29T16:41:51.210Z,100036.06
2022-12-29T16:44:27.503Z,100032.78
2022-12-29T16:47:13.096Z,100040.78
2022-12-29T16:49:43.296Z,100029.41
2022-12-29T16:52:24.138Z,100037.59
2022-12-29T16:54:56.723Z,100045.56
2022-12-29T16:57:32.977Z,100039.72
2022-12-29T17:00:03.777Z,100051.91
2022-12-29T17:02:32.630Z,100058.56
2022-12-29T17:04:59.951Z,100061.28
2022-12-29T17:07:29.111Z,100053.69
2022-12-29T17:09:56.349Z,100056.22
2022-12-29T17:12:28.858Z,100064.78
2022-12-29T17:15:03.183Z,100062.19
2022-12-29T17:17:42.593Z,100064.53
2022-12-29T17:20:19.018Z,100061.94
2022-12-29T17:22:46.559Z,100076.47
2022-12-29T17:25:19.133Z,100080.25
2022-12-29T17:27:58.845Z,100074.41
2022-12-29T17:30:32.926Z,100083.16
2022-12-29T17:33:03.321Z,100079.50
2022-12-29T17:35:30.673Z,100085.97
2022-12-29T17:37:58.053Z,100089.44
2022-12-29T17:40:29.409Z,100077.16
2022-12-29T17:42:58.326Z,100074.75
2022-12-29T17:45:27.602Z,100072.06
2022-12-29T17:47:55.095Z,100079.31
2022-12-29T17:50:26.793Z,100077.47
2022-12-29T17:53:01.095Z,100084.72
2022-12-29T17:55:36.673Z,100077.81
2022-12-29T17:58:19.051Z,100077.22
2022-12-29T18:00:47.754Z,100080.00
2022-12-29T18:03:17.003Z,100082.69
2022-12-29T18:05:44.447Z,100081.13
2022-12-29T18:08:12.534Z,100077.03
2022-12-29T18:10:40.338Z,100082.06
2022-12-29T18:13:09.338Z,100085.25
2022-12-29T18:15:37.627Z,100082.59
2022-12-29T18:18:14.138Z,100089.59
2022-12-29T18:20:43.087Z,100090.66
2022-12-29T18:23:22.024Z,100088.03
2022-12-29T18:26:04.521Z,100099.38
2022-12-29T18:28:31.721Z,100105.41
2022-12-29T18:31:01.434Z,100101.88
2022-12-29T18:33:29.851Z,100101.72
2022-12-29T18:36:04.735Z,100105.03
2022-12-29T18:38:32.190Z,100110.28
2022-12-29T18:40:59.738Z,100108.53
2022-12-29T18:43:26.966Z,100112.81
2022-12-29T18:45:54.128Z,100111.97
2022-12-29T18:48:21.733Z,100106.97
2022-12-29T18:50:53.291Z,100102.97
2022-12-29T18:53:23.516Z,100115.50
2022-12-29T18:55:51.637Z,100114.00
2022-12-29T18:58:19.146Z,100120.31
2022-12-29T19:00:46.896Z,100117.84
2022-12-29T19:03:16.408Z,100113.75
2022-12-29T19:05:44.913Z,100120.13
2022-12-29T19:08:12.746Z,100115.00
2022-12-29T19:10:40.709Z,100124.56
2022-12-29T19:13:10.034Z,100126.31
2022-12-29T19:15:40.071Z,100123.31
2022-12-29T19:18:43.069Z,100116.28
2022-12-29T19:20:58.152Z,100132.88
2022-12-29T19:23:26.701Z,100139.78
2022-12-29T19:25:55.308Z,100137.88
2022-12-29T19:28:25.172Z,100132.28
2022-12-29T19:30:57.003Z,100137.13
2022-12-29T19:33:24.923Z,100141.06
2022-12-29T19:35:52.994Z,100138.06
2022-12-29T19:38:20.665Z,100140.53
2022-12-29T19:40:50.538Z,100149.16
2022-12-29T19:43:18.717Z,100149.16
2022-12-29T19:45:46.376Z,100147.41
2022-12-29T19:48:20.179Z,100158.00
2022-12-29T19:50:47.556Z,100151.69
2022-12-29T19:53:15.020Z,100154.81
2022-12-29T19:55:44.013Z,100147.69
2022-12-29T19:58:11.666Z,100153.78
2022-12-29T20:00:40.618Z,100153.03
2022-12-29T20:03:08.064Z,100151.16
2022-12-29T20:05:35.529Z,100147.75
2022-12-29T20:08:03.072Z,100152.88
2022-12-29T20:10:30.247Z,100153.72
2022-12-29T20:12:57.548Z,100140.38
2022-12-29T20:15:25.096Z,100147.63
2022-12-29T20:20:39.548Z,100143.16
2022-12-29T20:23:06.754Z,100146.47
2022-12-29T20:25:44.862Z,100153.31
2022-12-29T20:28:13.384Z,100147.69
2022-12-29T20:30:40.768Z,100151.25
2022-12-29T20:33:08.906Z,100151.25
2022-12-29T20:35:36.809Z,100148.63
2022-12-29T20:38:04.666Z,100151.13
2022-12-29T20:40:32.564Z,100148.38
2022-12-29T20:42:59.761Z,100158.94
2022-12-29T20:45:27.002Z,100147.00
2022-12-29T20:47:54.753Z,100148.75
2022-12-29T20:50:22.059Z,100146.97
2022-12-29T20:52:49.283Z,100148.84
2022-12-29T20:55:16.614Z,100148.13
2022-12-29T20:58:21.986Z,100151.47
2022-12-29T21:00:32.716Z,100154.88
2022-12-29T21:03:01.048Z,100144.38
2022-12-29T21:05:29.494Z,100148.16
2022-12-29T21:07:59.571Z,100149.94
2022-12-29T21:10:26.858Z,100150.03
2022-12-29T21:12:54.081Z,100156.25
2022-12-29T21:15:21.862Z,100156.00
2022-12-29T21:17:49.283Z,100154.16
2022-12-29T21:20:20.048Z,100149.34
2022-12-29T21:22:50.353Z,100153.78
2022-12-29T21:25:17.885Z,100154.44
2022-12-29T21:27:45.115Z,100153.28
2022-12-29T21:30:13.266Z,100159.66
2022-12-29T21:32:41.541Z,100161.47
2022-12-29T21:35:09.556Z,100176.59
2022-12-29T21:37:37.417Z,100179.41
2022-12-29T21:40:05.932Z,100177.56
2022-12-29T21:42:33.138Z,100177.78
2022-12-29T21:45:21.094Z,100169.28
2022-12-29T21:48:07.649Z,100170.47
2022-12-29T21:51:01.243Z,100175.03
2022-12-29T21:53:40.554Z,100185.44
2022-12-29T21:56:09.479Z,100182.16
2022-12-29T21:58:56.859Z,100188.53
2022-12-29T22:01:43.553Z,100188.44
2022-12-29T22:04:34.484Z,100195.47
2022-12-29T22:07:21.852Z,100193.53
2022-12-29T22:10:08.072Z,100201.53
2022-12-29T22:12:54.135Z,100185.13
2022-12-29T22:15:21.407Z,100191.56
2022-12-29T22:17:53.975Z,100197.09
2022-12-29T22:20:23.829Z,100198.88
2022-12-29T22:22:51.116Z,100206.03
2022-12-29T22:25:18.416Z,100205.28
2022-12-29T22:27:45.651Z,100210.50
2022-12-29T22:30:13.622Z,100200.75
2022-12-29T22:32:40.966Z,100206.97
2022-12-29T22:35:10.130Z,100203.59
2022-12-29T22:37:39.633Z,100217.53
2022-12-29T22:40:09.702Z,100201.91
2022-12-29T22:42:37.253Z,100205.63
2022-12-29T22:45:04.952Z,100207.97
2022-12-29T22:47:32.169Z,100209.75
2022-12-29T22:50:00.380Z,100215.00
2022-12-29T22:52:27.612Z,100217.63
2022-12-29T22:54:54.847Z,100221.72
2022-12-29T22:57:22.023Z,100225.03
2022-12-29T22:59:49.245Z,100238.69
2022-12-29T23:02:17.003Z,100241.16
2022-12-29T23:05:02.905Z,100241.06
2022-12-29T23:07:31.601Z,100242.78
2022-12-29T23:09:58.992Z,100240.97
2022-12-29T23:12:28.800Z,100248.75
2022-12-29T23:14:56.306Z,100255.06
2022-12-29T23:17:25.081Z,100243.69
2022-12-29T23:19:52.367Z,100248.88
2022-12-29T23:22:19.880Z,100249.03
2022-12-29T23:24:47.090Z,100255.91
2022-12-29T23:27:14.302Z,100260.00
2022-12-29T23:29:41.560Z,100255.56
2022-12-29T23:32:08.818Z,100259.06
2022-12-29T23:34:36.053Z,100260.53
2022-12-29T23:37:03.274Z,100261.94
2022-12-29T23:39:30.694Z,100263.84
2022-12-29T23:41:58.111Z,100262.94
2022-12-29T23:44:25.317Z,100268.63
2022-12-29T23:46:52.790Z,100268.84
2022-12-29T23:49:20.077Z,100276.59
2022-12-29T23:51:47.298Z,100271.09
2022-12-29T23:54:14.806Z,100277.25
2022-12-29T23:56:42.032Z,100289.41
2022-12-29T23:59:09.215Z,100286.59
